createdAt,value
2022-12-18T00:01:41.581Z,101847.63
2022-12-18T00:04:43.690Z,101857.78
2022-12-18T00:07:45.603Z,101862.62
2022-12-18T00:10:47.424Z,101867.84
2022-12-18T00:13:49.441Z,101863.13
2022-12-18T00:16:51.265Z,101883.38
2022-12-18T00:19:53.096Z,101889.31
2022-12-18T00:22:55.108Z,101896.62
2022-12-18T00:26:00.559Z,101905.34
2022-12-18T00:29:03.935Z,101907.53
2022-12-18T00:32:07.624Z,101909.94
2022-12-18T00:35:09.495Z,101908.97
2022-12-18T00:38:11.288Z,101919.00
2022-12-18T00:41:14.008Z,101925.94
2022-12-18T00:44:16.500Z,101926.91
2022-12-18T00:47:18.336Z,101924.87
2022-12-18T00:50:21.199Z,101930.12
2022-12-18T00:53:23.068Z,101939.53
2022-12-18T00:56:24.977Z,101943.75
2022-12-18T00:59:26.856Z,101946.41
2022-12-18T01:02:28.749Z,101947.31
2022-12-18T01:05:30.804Z,101950.94
2022-12-18T01:08:32.648Z,101942.78
2022-12-18T01:11:34.603Z,101950.50
2022-12-18T01:14:37.087Z,101957.72
2022-12-18T01:17:38.945Z,101966.41
2022-12-18T01:20:40.772Z,101965.31
2022-12-18T01:23:42.961Z,101972.81
2022-12-18T01:26:44.924Z,101974.19
2022-12-18T01:29:46.734Z,101972.41
2022-12-18T01:32:48.830Z,101970.44
2022-12-18T01:35:50.695Z,101971.44
2022-12-18T01:38:52.569Z,101981.91
2022-12-18T01:42:03.362Z,101984.72
2022-12-18T01:45:05.256Z,101984.34
2022-12-18T01:48:07.564Z,101982.25
2022-12-18T01:51:09.929Z,101985.56
2022-12-18T01:54:11.728Z,101987.19
2022-12-18T01:57:13.545Z,101991.56
2022-12-18T02:00:16.485Z,101996.06
2022-12-18T02:03:18.365Z,102012.41
2022-12-18T02:06:22.028Z,102012.34
2022-12-18T02:09:29.373Z,102005.97
2022-12-18T02:12:34.480Z,102007.28
2022-12-18T02:15:49.495Z,102008.09
2022-12-18T02:18:52.159Z,102014.22
2022-12-18T02:22:03.246Z,102014.97
2022-12-18T02:25:14.446Z,102011.25
2022-12-18T02:28:16.649Z,102021.69
2022-12-18T02:31:20.280Z,102025.09
2022-12-18T02:34:22.714Z,102030.81
2022-12-18T02:37:24.569Z,102025.25
2022-12-18T02:40:27.142Z,102031.84
2022-12-18T02:43:29.006Z,102042.06
2022-12-18T02:46:38.212Z,102045.06
2022-12-18T02:49:58.341Z,102040.63
2022-12-18T02:53:15.566Z,102041.81
2022-12-18T02:56:19.362Z,102042.31
2022-12-18T02:59:24.983Z,102060.53
2022-12-18T03:02:47.464Z,102066.28
2022-12-18T03:05:57.998Z,102069.56
2022-12-18T03:09:01.146Z,102071.03
2022-12-18T03:12:24.176Z,102071.13
2022-12-18T03:15:33.079Z,102081.44
2022-12-18T03:18:39.193Z,102084.09
2022-12-18T03:21:45.094Z,102082.75
2022-12-18T03:24:47.070Z,102073.69
2022-12-18T03:27:50.300Z,102088.03
2022-12-18T03:30:53.863Z,102100.44
2022-12-18T03:33:57.011Z,102107.28
2022-12-18T03:36:58.863Z,102100.69
2022-12-18T03:40:00.724Z,102105.66
2022-12-18T03:43:04.720Z,102113.81
2022-12-18T03:46:08.378Z,102123.59
2022-12-18T03:49:11.600Z,102127.41
2022-12-18T03:52:15.342Z,102126.06
2022-12-18T03:55:17.749Z,102119.44
2022-12-18T03:58:21.432Z,102119.91
2022-12-18T04:01:24.412Z,102115.75
2022-12-18T04:04:26.338Z,102119.53
2022-12-18T04:07:28.199Z,102110.72
2022-12-18T04:10:30.100Z,102141.34
2022-12-18T04:13:38.836Z,102145.94
2022-12-18T04:16:40.918Z,102149.78
2022-12-18T04:19:42.752Z,102144.94
2022-12-18T04:22:44.626Z,102142.13
2022-12-18T04:25:47.840Z,102140.12
2022-12-18T04:28:49.668Z,102149.56
2022-12-18T04:31:51.476Z,102140.16
2022-12-18T04:34:53.472Z,102146.16
2022-12-18T04:37:55.329Z,102143.03
2022-12-18T04:40:57.135Z,102137.88
2022-12-18T04:43:58.964Z,102155.06
2022-12-18T04:47:00.793Z,102170.97
2022-12-18T04:50:02.676Z,102172.47
2022-12-18T04:53:04.485Z,102180.78
2022-12-18T04:56:10.546Z,102184.72
2022-12-18T04:59:12.367Z,102189.47
2022-12-18T05:02:14.296Z,102191.19
2022-12-18T05:05:16.349Z,102185.13
2022-12-18T05:08:18.417Z,102194.62
2022-12-18T05:11:20.296Z,102194.84
2022-12-18T05:14:22.144Z,102194.28
2022-12-18T05:17:23.939Z,102203.41
2022-12-18T05:20:25.860Z,102188.19
2022-12-18T05:23:28.141Z,102204.34
2022-12-18T05:26:29.985Z,102204.62
2022-12-18T05:29:31.880Z,102216.59
2022-12-18T05:32:33.790Z,102223.41
2022-12-18T05:35:35.576Z,102222.97
2022-12-18T05:38:38.014Z,102224.47
2022-12-18T05:41:40.052Z,102223.59
2022-12-18T05:44:41.894Z,102231.47
2022-12-18T05:47:43.707Z,102238.03
2022-12-18T05:50:48.883Z,102228.88
2022-12-18T05:53:50.743Z,102239.22
2022-12-18T05:56:52.739Z,102249.12
2022-12-18T05:59:54.764Z,102252.19
2022-12-18T06:02:56.873Z,102252.06
2022-12-18T06:05:58.782Z,102257.34
2022-12-18T06:09:02.366Z,102254.81
2022-12-18T06:12:04.524Z,102258.22
2022-12-18T06:15:06.632Z,102261.50
2022-12-18T06:18:08.454Z,102258.50
2022-12-18T06:21:10.312Z,102259.41
2022-12-18T06:24:12.152Z,102254.88
2022-12-18T06:27:14.167Z,102266.72
2022-12-18T06:30:16.122Z,102271.44
2022-12-18T06:33:18.044Z,102274.22
2022-12-18T06:36:20.671Z,102288.38
2022-12-18T06:39:22.519Z,102284.44
2022-12-18T06:42:25.063Z,102297.38
2022-12-18T06:45:26.934Z,102314.50
2022-12-18T06:48:29.544Z,102316.09
2022-12-18T06:51:31.668Z,102315.09
2022-12-18T06:54:33.482Z,102314.91
2022-12-18T06:57:35.376Z,102321.13
2022-12-18T07:00:37.245Z,102322.56
2022-12-18T07:03:42.716Z,102338.94
2022-12-18T07:06:44.918Z,102336.19
2022-12-18T07:09:46.736Z,102342.22
2022-12-18T07:12:48.517Z,102345.16
2022-12-18T07:15:50.348Z,102341.09
2022-12-18T07:18:52.349Z,102346.22
2022-12-18T07:21:54.249Z,102359.84
2022-12-18T07:24:56.308Z,102359.31
2022-12-18T07:27:58.196Z,102366.84
2022-12-18T07:31:04.053Z,102382.59
2022-12-18T07:34:05.901Z,102377.72
2022-12-18T07:37:07.758Z,102380.19
2022-12-18T07:40:09.898Z,102391.28
2022-12-18T07:43:11.767Z,102393.56
2022-12-18T07:46:17.221Z,102391.78
2022-12-18T07:49:19.104Z,102395.06
2022-12-18T07:52:25.775Z,102404.78
2022-12-18T07:55:28.501Z,102413.78
2022-12-18T07:58:31.464Z,102408.41
2022-12-18T08:01:34.112Z,102413.69
2022-12-18T08:04:36.040Z,102423.41
2022-12-18T08:07:37.988Z,102422.97
2022-12-18T08:10:40.325Z,102422.03
2022-12-18T08:13:42.413Z,102426.53
2022-12-18T08:16:44.511Z,102438.12
2022-12-18T08:19:46.327Z,102431.81
2022-12-18T08:22:48.350Z,102441.53
2022-12-18T08:25:50.973Z,102443.69
2022-12-18T08:28:53.006Z,102446.72
2022-12-18T08:31:54.867Z,102444.00
2022-12-18T08:34:56.771Z,102445.97
2022-12-18T08:37:58.646Z,102446.16
2022-12-18T08:41:01.439Z,102448.50
2022-12-18T08:44:22.227Z,102452.69
2022-12-18T08:47:24.115Z,102452.19
2022-12-18T08:50:26.047Z,102459.25
2022-12-18T08:53:32.697Z,102455.34
2022-12-18T08:56:37.280Z,102463.97
2022-12-18T08:59:39.159Z,102462.72
2022-12-18T09:02:41.038Z,102466.44
2022-12-18T09:05:43.140Z,102460.56
2022-12-18T09:08:45.300Z,102474.94
2022-12-18T09:11:47.160Z,102470.63
2022-12-18T09:14:48.971Z,102475.34
2022-12-18T09:17:51.053Z,102487.72
2022-12-18T09:20:53.931Z,102482.78
2022-12-18T09:23:56.129Z,102482.56
2022-12-18T09:26:58.250Z,102476.12
2022-12-18T09:30:00.114Z,102483.06
2022-12-18T09:33:01.976Z,102478.19
2022-12-18T09:36:04.759Z,102477.56
2022-12-18T09:39:08.846Z,102482.19
2022-12-18T09:42:14.026Z,102476.12
2022-12-18T09:45:15.880Z,102470.97
2022-12-18T09:48:28.954Z,102479.81
2022-12-18T09:51:36.396Z,102477.16
2022-12-18T09:54:41.236Z,102478.88
2022-12-18T09:57:50.666Z,102470.69
2022-12-18T10:00:53.175Z,102471.84
2022-12-18T10:03:55.313Z,102482.03
2022-12-18T10:07:08.794Z,102466.47
2022-12-18T10:10:23.876Z,102473.41
2022-12-18T10:13:38.202Z,102463.72
2022-12-18T10:17:01.157Z,102465.75
2022-12-18T10:20:10.085Z,102459.75
2022-12-18T10:23:18.551Z,102464.44
2022-12-18T10:26:20.429Z,102456.81
2022-12-18T10:29:23.510Z,102452.56
2022-12-18T10:32:29.400Z,102456.94
2022-12-18T10:35:31.220Z,102463.06
2022-12-18T10:38:33.186Z,102454.94
2022-12-18T10:41:35.040Z,102451.19
2022-12-18T10:44:36.897Z,102450.50
2022-12-18T10:47:43.149Z,102450.44
2022-12-18T10:51:10.185Z,102456.28
2022-12-18T10:54:22.836Z,102447.53
2022-12-18T10:57:27.696Z,102447.53
2022-12-18T11:00:30.929Z,102440.81
2022-12-18T11:03:32.948Z,102449.00
2022-12-18T11:06:34.934Z,102447.56
2022-12-18T11:09:38.229Z,102440.44
2022-12-18T11:12:40.111Z,102434.56
2022-12-18T11:15:41.974Z,102435.97
2022-12-18T11:18:44.112Z,102439.00
2022-12-18T11:21:46.040Z,102423.91
2022-12-18T11:28:46.391Z,102429.09
2022-12-18T11:31:48.300Z,102440.88
2022-12-18T11:34:55.952Z,102430.13
2022-12-18T11:38:03.966Z,102420.34
2022-12-18T11:41:20.811Z,102425.28
2022-12-18T11:44:26.430Z,102418.19
2022-12-18T11:47:40.478Z,102408.97
2022-12-18T11:50:45.485Z,102411.94
2022-12-18T11:53:47.316Z,102402.47
2022-12-18T11:56:50.430Z,102401.50
2022-12-18T12:00:12.623Z,102399.87
2022-12-18T12:03:23.600Z,102399.87
2022-12-18T12:06:43.655Z,102383.88
2022-12-18T12:10:00.794Z,102372.59
2022-12-18T12:13:21.349Z,102377.12
2022-12-18T12:16:43.218Z,102382.91
2022-12-18T12:19:51.058Z,102377.09
2022-12-18T12:22:58.080Z,102369.44
2022-12-18T12:26:00.443Z,102367.34
2022-12-18T12:29:04.299Z,102375.47
2022-12-18T12:32:08.522Z,102378.47
2022-12-18T12:35:36.801Z,102378.87
2022-12-18T12:38:49.773Z,102388.19
2022-12-18T12:42:11.991Z,102366.41
2022-12-18T12:45:17.834Z,102383.56
2022-12-18T12:48:33.731Z,102383.25
2022-12-18T12:51:39.969Z,102390.22
2022-12-18T12:54:42.585Z,102385.97
2022-12-18T12:57:47.031Z,102386.25
2022-12-18T13:01:09.336Z,102403.56
2022-12-18T13:04:37.366Z,102404.75
2022-12-18T13:07:51.087Z,102416.03
2022-12-18T13:11:13.815Z,102433.09
2022-12-18T13:14:23.065Z,102430.53
2022-12-18T13:17:30.217Z,102437.53
2022-12-18T13:20:36.121Z,102439.25
2022-12-18T13:23:38.887Z,102437.78
2022-12-18T13:26:41.197Z,102442.47
2022-12-18T13:29:44.560Z,102441.56
2022-12-18T13:32:46.399Z,102436.94
2022-12-18T13:35:48.726Z,102444.97
2022-12-18T13:39:09.569Z,102456.69
2022-12-18T13:42:31.736Z,102461.31
2022-12-18T13:45:37.285Z,102463.63
2022-12-18T13:48:39.184Z,102460.94
2022-12-18T13:51:45.249Z,102464.47
2022-12-18T13:54:49.456Z,102462.88
2022-12-18T13:57:52.571Z,102458.69
2022-12-18T14:00:54.633Z,102466.03
2022-12-18T14:04:15.086Z,102470.63
2022-12-18T14:07:27.313Z,102462.88
2022-12-18T14:10:48.586Z,102462.84
2022-12-18T14:13:51.524Z,102482.84
2022-12-18T14:16:53.460Z,102478.47
2022-12-18T14:19:55.762Z,102474.69
2022-12-18T14:22:57.789Z,102477.37
2022-12-18T14:26:05.478Z,102478.44
2022-12-18T14:29:27.958Z,102480.34
2022-12-18T14:32:29.834Z,102482.78
2022-12-18T14:35:32.241Z,102483.75
2022-12-18T14:38:35.430Z,102485.69
2022-12-18T14:41:37.301Z,102492.31
2022-12-18T14:44:50.802Z,102501.88
2022-12-18T14:47:59.927Z,102507.63
2022-12-18T14:51:03.366Z,102508.88
2022-12-18T14:54:14.795Z,102515.97
2022-12-18T14:57:22.607Z,102528.44
2022-12-18T15:00:24.932Z,102524.28
2022-12-18T15:03:26.836Z,102526.22
2022-12-18T15:06:28.959Z,102525.72
2022-12-18T15:09:30.776Z,102537.97
2022-12-18T15:12:36.794Z,102542.69
2022-12-18T15:15:39.039Z,102545.97
2022-12-18T15:18:42.420Z,102545.47
2022-12-18T15:21:44.223Z,102537.56
2022-12-18T15:24:46.060Z,102558.84
2022-12-18T15:27:47.955Z,102557.75
2022-12-18T15:31:03.577Z,102555.87
2022-12-18T15:34:08.588Z,102561.63
2022-12-18T15:37:10.419Z,102577.19
2022-12-18T15:40:16.221Z,102576.94
2022-12-18T15:43:34.806Z,102574.38
2022-12-18T15:46:36.669Z,102574.75
2022-12-18T15:49:38.564Z,102587.75
2022-12-18T15:52:41.214Z,102587.31
2022-12-18T15:56:02.037Z,102587.38
2022-12-18T15:59:05.457Z,102606.41
2022-12-18T16:02:09.701Z,102601.03
2022-12-18T16:05:15.216Z,102603.28
2022-12-18T16:08:17.062Z,102613.06
2022-12-18T16:11:38.669Z,102616.41
2022-12-18T16:14:40.528Z,102616.66
2022-12-18T16:17:43.102Z,102618.31
2022-12-18T16:20:44.936Z,102615.22
2022-12-18T16:23:46.755Z,102621.91
2022-12-18T16:26:49.007Z,102629.25
2022-12-18T16:29:50.939Z,102632.88
2022-12-18T16:32:52.836Z,102638.09
2022-12-18T16:35:54.767Z,102644.56
2022-12-18T16:38:56.601Z,102636.94
2022-12-18T16:41:58.728Z,102635.94
2022-12-18T16:45:01.426Z,102650.97
2022-12-18T16:48:03.256Z,102640.31
2022-12-18T16:51:05.673Z,102653.97
2022-12-18T16:54:10.941Z,102655.59
2022-12-18T16:57:15.499Z,102665.38
2022-12-18T17:00:18.300Z,102653.78
2022-12-18T17:03:20.181Z,102660.34
2022-12-18T17:06:22.529Z,102658.34
2022-12-18T17:09:25.459Z,102651.06
2022-12-18T17:12:27.440Z,102644.63
2022-12-18T17:15:29.236Z,102635.12
2022-12-18T17:18:31.057Z,102633.94
2022-12-18T17:21:33.121Z,102630.91
2022-12-18T17:24:35.586Z,102645.09
2022-12-18T17:27:37.660Z,102639.97
2022-12-18T17:30:39.543Z,102643.06
2022-12-18T17:33:42.555Z,102641.13
2022-12-18T17:36:44.753Z,102643.44
2022-12-18T17:39:46.706Z,102650.03
2022-12-18T17:42:48.584Z,102644.13
2022-12-18T17:45:50.577Z,102652.56
2022-12-18T17:48:52.547Z,102653.81
2022-12-18T17:51:54.407Z,102659.63
2022-12-18T17:54:56.266Z,102664.37
2022-12-18T17:57:58.607Z,102670.78
2022-12-18T18:01:00.425Z,102661.88
2022-12-18T18:04:03.722Z,102659.59
2022-12-18T18:07:05.702Z,102656.19
2022-12-18T18:10:07.986Z,102653.13
2022-12-18T18:13:44.964Z,102649.31
2022-12-18T18:16:49.427Z,102657.44
2022-12-18T18:19:51.332Z,102661.81
2022-12-18T18:22:53.169Z,102664.66
2022-12-18T18:25:55.121Z,102668.03
2022-12-18T18:28:57.931Z,102662.38
2022-12-18T18:32:00.278Z,102661.28
2022-12-18T18:35:02.245Z,102653.75
2022-12-18T18:38:04.670Z,102665.19
2022-12-18T18:41:06.604Z,102670.34
2022-12-18T18:44:09.162Z,102678.16
2022-12-18T18:47:11.316Z,102681.84
2022-12-18T18:50:13.198Z,102692.66
2022-12-18T18:53:15.089Z,102689.78
2022-12-18T18:56:56.738Z,102686.69
2022-12-18T18:59:39.847Z,102694.28
2022-12-18T19:02:41.759Z,102699.56
2022-12-18T19:05:47.564Z,102700.72
2022-12-18T19:08:49.830Z,102682.62
2022-12-18T19:12:10.818Z,102706.69
2022-12-18T19:15:12.608Z,102713.31
2022-12-18T19:18:15.742Z,102715.47
2022-12-18T19:21:17.763Z,102711.37
2022-12-18T19:24:22.290Z,102698.94
2022-12-18T19:27:24.395Z,102725.50
2022-12-18T19:30:26.275Z,102711.00
2022-12-18T19:33:44.316Z,102725.72
2022-12-18T19:36:46.556Z,102730.12
2022-12-18T19:39:48.489Z,102739.31
2022-12-18T19:42:50.322Z,102732.88
2022-12-18T19:45:55.466Z,102738.53
2022-12-18T19:48:59.058Z,102743.34
2022-12-18T19:52:00.856Z,102754.75
2022-12-18T19:55:02.730Z,102749.59
2022-12-18T19:58:04.588Z,102751.44
2022-12-18T20:01:06.831Z,102759.47
2022-12-18T20:04:11.008Z,102753.41
2022-12-18T20:07:12.979Z,102753.44
2022-12-18T20:10:15.118Z,102761.16
2022-12-18T20:13:19.232Z,102760.09
2022-12-18T20:16:21.105Z,102775.37
2022-12-18T20:19:23.131Z,102772.41
2022-12-18T20:22:25.045Z,102759.91
2022-12-18T20:25:26.882Z,102764.47
2022-12-18T20:28:29.045Z,102775.63
2022-12-18T20:31:30.898Z,102781.56
2022-12-18T20:34:32.801Z,102783.94
2022-12-18T20:37:34.865Z,102774.81
2022-12-18T20:40:40.783Z,102777.56
2022-12-18T20:43:43.226Z,102781.50
2022-12-18T20:46:45.708Z,102774.63
2022-12-18T20:49:47.534Z,102787.13
2022-12-18T20:52:49.372Z,102780.94
2022-12-18T20:55:51.209Z,102803.63
2022-12-18T20:58:55.868Z,102802.06
2022-12-18T21:01:57.866Z,102790.62
2022-12-18T21:05:00.026Z,102799.78
2022-12-18T21:08:01.911Z,102800.94
2022-12-18T21:11:48.584Z,102810.84
2022-12-18T21:14:50.469Z,102806.84
2022-12-18T21:17:52.291Z,102818.00
2022-12-18T21:20:54.249Z,102813.88
2022-12-18T21:23:56.203Z,102817.13
2022-12-18T21:26:58.093Z,102819.13
2022-12-18T21:30:00.178Z,102814.91
2022-12-18T21:33:02.152Z,102817.00
2022-12-18T21:36:05.460Z,102813.19
2022-12-18T21:39:07.329Z,102804.59
2022-12-18T21:42:29.469Z,102806.97
2022-12-18T21:45:31.371Z,102807.91
2022-12-18T21:48:33.606Z,102795.91
2022-12-18T21:51:35.662Z,102783.44
2022-12-18T21:54:37.531Z,102798.25
2022-12-18T21:57:39.544Z,102804.31
2022-12-18T22:00:45.658Z,102804.97
2022-12-18T22:03:50.372Z,102808.22
2022-12-18T22:06:52.522Z,102798.66
2022-12-18T22:09:54.380Z,102793.00
2022-12-18T22:12:56.225Z,102788.78
2022-12-18T22:15:58.119Z,102793.56
2022-12-18T22:18:59.971Z,102794.91
2022-12-18T22:22:02.000Z,102810.97
2022-12-18T22:25:03.959Z,102811.59
2022-12-18T22:28:24.295Z,102801.16
2022-12-18T22:31:26.161Z,102808.09
2022-12-18T22:34:28.006Z,102809.63
2022-12-18T22:37:29.885Z,102804.81
2022-12-18T22:40:31.679Z,102797.38
2022-12-18T22:43:33.587Z,102812.56
2022-12-18T22:46:36.578Z,102810.34
2022-12-18T22:49:38.838Z,102807.50
2022-12-18T22:52:40.814Z,102806.81
2022-12-18T22:55:42.664Z,102818.94
2022-12-18T22:58:47.003Z,102808.72
2022-12-18T23:01:49.255Z,102808.09
2022-12-18T23:04:52.726Z,102825.34
2022-12-18T23:07:54.504Z,102823.06
2022-12-18T23:10:56.584Z,102838.81
2022-12-18T23:13:58.850Z,102835.97
2022-12-18T23:17:00.758Z,102829.50
2022-12-18T23:20:02.648Z,102829.44
2022-12-18T23:23:04.442Z,102834.09
2022-12-18T23:26:07.960Z,102826.37
2022-12-18T23:29:09.854Z,102830.41
2022-12-18T23:32:11.694Z,102830.09
2022-12-18T23:35:15.834Z,102819.16
2022-12-18T23:38:17.956Z,102811.94
2022-12-18T23:41:20.297Z,102824.72
2022-12-18T23:44:22.229Z,102828.16
2022-12-18T23:47:24.116Z,102815.66
2022-12-18T23:50:29.438Z,102808.31
2022-12-18T23:53:31.902Z,102827.81
2022-12-18T23:56:35.828Z,102840.03
2022-12-18T23:59:37.772Z,102841.06
